createdAt,value
2022-10-18T00:00:57.839Z,5.60
2022-10-18T00:03:30.783Z,5.93
2022-10-18T00:06:21.356Z,6.07
2022-10-18T00:09:26.802Z,5.62
2022-10-18T00:11:57.690Z,6.31
2022-10-18T00:14:31.303Z,6.33
2022-10-18T00:17:04.490Z,6.53
2022-10-18T00:19:38.838Z,6.57
2022-10-18T00:22:16.013Z,6.69
2022-10-18T00:25:09.673Z,6.80
2022-10-18T00:27:50.204Z,6.89
2022-10-18T00:30:21.603Z,6.42
2022-10-18T00:32:57.625Z,7.43
2022-10-18T00:35:39.974Z,7.52
2022-10-18T00:38:32.214Z,7.67
2022-10-18T00:48:20.085Z,7.95
2022-10-18T00:51:13.848Z,7.62
2022-10-18T00:56:43.437Z,8.03
2022-10-18T00:59:36.658Z,7.33
2022-10-18T01:02:59.342Z,7.34
2022-10-18T01:05:53.910Z,7.62
2022-10-18T01:08:54.335Z,7.93
2022-10-18T01:15:09.043Z,7.85
2022-10-18T01:17:56.480Z,8.12
2022-10-18T01:21:07.535Z,8.12
2022-10-18T01:24:16.553Z,7.96
2022-10-18T01:27:07.927Z,7.74
2022-10-18T01:33:10.617Z,7.48
2022-10-18T01:36:04.052Z,7.41
2022-10-18T01:38:41.928Z,7.22
2022-10-18T01:41:26.668Z,7.56
2022-10-18T01:44:11.828Z,8.02
2022-10-18T01:47:10.311Z,8.13
2022-10-18T01:50:06.705Z,7.89
2022-10-18T01:52:42.752Z,7.99
2022-10-18T01:55:24.418Z,8.23
2022-10-18T01:58:09.517Z,8.64
2022-10-18T02:01:02.505Z,8.61
2022-10-18T02:03:46.977Z,8.58
2022-10-18T02:06:51.889Z,8.10
2022-10-18T02:09:55.440Z,7.78
2022-10-18T02:12:41.388Z,7.45
2022-10-18T02:15:20.706Z,7.35
2022-10-18T02:17:56.219Z,7.43
2022-10-18T02:20:42.671Z,7.50
2022-10-18T02:26:35.436Z,7.34
2022-10-18T02:29:19.992Z,7.33
2022-10-18T02:32:08.546Z,6.60
2022-10-18T02:34:50.752Z,5.89
2022-10-18T02:37:24.403Z,4.90
2022-10-18T02:40:14.009Z,4.56
2022-10-18T02:43:02.943Z,4.48
2022-10-18T02:45:39.154Z,4.87
2022-10-18T02:48:27.640Z,5.26
2022-10-18T02:51:06.052Z,5.34
2022-10-18T02:53:40.822Z,5.28
2022-10-18T02:56:32.062Z,5.29
2022-10-18T02:59:25.493Z,5.30
2022-10-18T03:02:00.514Z,5.42
2022-10-18T03:04:38.252Z,5.53
2022-10-18T03:07:17.423Z,5.32
2022-10-18T03:09:59.118Z,5.70
2022-10-18T03:12:45.208Z,5.81
2022-10-18T03:15:19.867Z,5.81
2022-10-18T03:18:00.094Z,5.89
2022-10-18T03:20:40.808Z,6.11
2022-10-18T03:23:26.170Z,6.14
2022-10-18T03:26:07.447Z,6.13
2022-10-18T03:28:55.423Z,6.15
2022-10-18T03:31:28.222Z,6.17
2022-10-18T03:34:03.943Z,5.96
2022-10-18T03:36:45.388Z,6.33
2022-10-18T03:39:21.655Z,6.45
2022-10-18T03:41:57.943Z,6.53
2022-10-18T03:44:36.568Z,6.47
2022-10-18T03:47:21.820Z,6.56
2022-10-18T03:49:57.447Z,6.62
2022-10-18T03:52:33.632Z,6.41
2022-10-18T03:55:14.622Z,6.51
2022-10-18T03:57:50.278Z,6.65
2022-10-18T04:00:30.421Z,6.66
2022-10-18T04:03:04.874Z,6.43
2022-10-18T04:05:44.019Z,6.63
2022-10-18T04:08:20.299Z,6.32
2022-10-18T04:10:53.698Z,6.50
2022-10-18T04:13:33.571Z,6.46
2022-10-18T04:19:21.985Z,6.31
2022-10-18T04:22:23.481Z,6.29
2022-10-18T04:25:11.253Z,6.37
2022-10-18T04:28:08.058Z,6.17
2022-10-18T04:30:40.890Z,6.41
2022-10-18T04:33:28.055Z,6.48
2022-10-18T04:36:14.952Z,6.71
2022-10-18T04:38:51.472Z,6.72
2022-10-18T04:41:34.511Z,6.94
2022-10-18T04:44:12.806Z,7.08
2022-10-18T04:47:04.262Z,7.11
2022-10-18T04:49:43.577Z,7.05
2022-10-18T04:52:17.537Z,6.87
2022-10-18T04:55:09.571Z,6.84
2022-10-18T04:57:46.840Z,6.74
2022-10-18T05:00:39.997Z,6.62
2022-10-18T05:03:28.086Z,6.54
2022-10-18T05:06:13.452Z,6.32
2022-10-18T05:08:47.904Z,6.16
2022-10-18T05:11:32.174Z,6.07
2022-10-18T05:14:23.769Z,6.01
2022-10-18T05:17:22.887Z,6.01
2022-10-18T05:23:02.009Z,5.74
2022-10-18T05:25:43.985Z,5.62
2022-10-18T05:28:43.878Z,5.79
2022-10-18T05:31:20.131Z,5.79
2022-10-18T05:34:06.799Z,5.83
2022-10-18T05:36:55.530Z,5.94
2022-10-18T05:39:45.048Z,6.03
2022-10-18T05:42:26.540Z,6.08
2022-10-18T05:45:02.032Z,6.00
2022-10-18T05:47:52.301Z,5.95
2022-10-18T05:50:29.519Z,5.90
2022-10-18T05:56:10.280Z,5.61
2022-10-18T05:58:47.787Z,5.84
2022-10-18T06:01:26.813Z,5.91
2022-10-18T06:04:09.092Z,5.77
2022-10-18T06:06:52.150Z,5.76
2022-10-18T06:09:38.511Z,5.73
2022-10-18T06:12:24.725Z,5.70
2022-10-18T06:15:02.823Z,5.62
2022-10-18T06:20:36.148Z,5.40
2022-10-18T06:23:15.717Z,5.30
2022-10-18T06:25:52.455Z,5.27
2022-10-18T06:28:36.507Z,5.26
2022-10-18T06:31:15.489Z,5.18
2022-10-18T06:33:54.233Z,5.10
2022-10-18T06:36:42.719Z,5.05
2022-10-18T06:39:29.713Z,4.95
2022-10-18T06:42:12.867Z,4.89
2022-10-18T06:45:21.162Z,4.79
2022-10-18T06:48:08.749Z,4.79
2022-10-18T06:50:49.390Z,4.84
2022-10-18T06:53:33.178Z,4.85
2022-10-18T06:56:17.517Z,4.72
2022-10-18T06:59:16.393Z,4.82
2022-10-18T07:02:19.038Z,4.75
2022-10-18T07:08:09.620Z,4.51
2022-10-18T07:10:47.943Z,4.68
2022-10-18T07:13:32.907Z,4.62
2022-10-18T07:16:22.819Z,4.53
2022-10-18T07:19:06.910Z,4.43
2022-10-18T07:21:50.947Z,4.46
2022-10-18T07:30:20.323Z,4.38
2022-10-18T07:33:14.183Z,4.28
2022-10-18T07:36:03.802Z,4.05
2022-10-18T07:39:05.589Z,4.07
2022-10-18T07:41:50.469Z,4.05
2022-10-18T07:44:30.517Z,4.06
2022-10-18T07:47:07.664Z,4.10
2022-10-18T07:49:51.094Z,3.92
2022-10-18T07:52:50.030Z,4.14
2022-10-18T07:55:35.089Z,4.06
2022-10-18T07:58:12.020Z,4.02
2022-10-18T08:01:09.301Z,3.98
2022-10-18T08:03:47.018Z,3.91
2022-10-18T08:06:26.646Z,3.65
2022-10-18T08:09:26.167Z,3.99
2022-10-18T08:12:16.893Z,4.10
2022-10-18T08:14:59.903Z,4.05
2022-10-18T08:17:42.885Z,4.05
2022-10-18T08:20:42.811Z,4.13
2022-10-18T08:23:27.162Z,4.17
2022-10-18T08:26:06.074Z,4.03
2022-10-18T08:28:53.942Z,4.10
2022-10-18T08:31:46.364Z,4.02
2022-10-18T08:34:33.089Z,4.07
2022-10-18T08:37:22.272Z,4.11
2022-10-18T08:40:13.327Z,4.15
2022-10-18T08:43:09.403Z,4.10
2022-10-18T08:45:51.496Z,3.51
2022-10-18T08:48:35.753Z,3.99
2022-10-18T08:51:44.167Z,3.91
2022-10-18T08:55:11.156Z,3.88
2022-10-18T08:57:58.594Z,3.88
2022-10-18T09:00:43.842Z,3.79
2022-10-18T09:03:39.948Z,3.82
2022-10-18T09:06:46.189Z,3.82
2022-10-18T09:09:31.535Z,3.32
2022-10-18T09:12:33.750Z,3.79
2022-10-18T09:15:34.932Z,3.73
2022-10-18T09:21:50.046Z,3.91
2022-10-18T09:24:40.096Z,3.82
2022-10-18T09:27:32.382Z,3.74
2022-10-18T09:33:44.946Z,3.69
2022-10-18T09:36:44.593Z,3.49
2022-10-18T09:40:00.991Z,3.78
2022-10-18T09:45:56.219Z,3.70
2022-10-18T09:48:51.125Z,3.72
2022-10-18T09:51:39.522Z,3.76
2022-10-18T09:54:34.267Z,3.74
2022-10-18T09:57:28.493Z,3.52
2022-10-18T10:03:24.800Z,3.72
2022-10-18T10:06:21.500Z,3.74
2022-10-18T10:09:14.968Z,3.74
2022-10-18T10:12:09.689Z,3.68
2022-10-18T10:15:05.157Z,3.67
2022-10-18T10:17:43.980Z,3.56
2022-10-18T10:20:32.694Z,3.54
2022-10-18T10:23:23.356Z,3.56
2022-10-18T10:26:11.283Z,3.45
2022-10-18T10:28:54.282Z,3.19
2022-10-18T10:31:54.715Z,3.39
2022-10-18T10:34:42.324Z,3.34
2022-10-18T10:37:48.745Z,3.34
2022-10-18T10:40:36.812Z,3.37
2022-10-18T10:43:40.313Z,3.39
2022-10-18T10:52:26.749Z,3.30
2022-10-18T10:55:33.797Z,3.22
2022-10-18T10:58:25.645Z,3.14
2022-10-18T11:01:16.747Z,3.05
2022-10-18T11:04:01.201Z,2.99
2022-10-18T11:07:03.767Z,3.02
2022-10-18T11:10:01.985Z,2.95
2022-10-18T11:16:15.523Z,2.91
2022-10-18T11:18:59.147Z,2.97
2022-10-18T11:21:43.545Z,2.92
2022-10-18T11:24:31.827Z,2.81
2022-10-18T11:27:28.213Z,2.59
2022-10-18T11:30:22.973Z,2.46
2022-10-18T11:33:07.755Z,2.57
2022-10-18T11:36:04.817Z,2.68
2022-10-18T11:38:57.340Z,2.76
2022-10-18T11:42:01.863Z,2.82
2022-10-18T11:44:50.828Z,2.85
2022-10-18T11:47:53.688Z,2.96
2022-10-18T11:50:40.515Z,3.08
2022-10-18T11:53:27.416Z,3.12
2022-10-18T11:56:19.820Z,3.15
2022-10-18T11:59:21.830Z,3.07
2022-10-18T12:02:08.276Z,3.08
2022-10-18T12:05:18.855Z,3.02
2022-10-18T12:08:06.557Z,2.94
2022-10-18T12:11:05.796Z,2.91
2022-10-18T12:14:03.744Z,2.92
2022-10-18T12:16:53.638Z,2.65
2022-10-18T12:19:53.202Z,2.81
2022-10-18T12:22:40.337Z,2.88
2022-10-18T12:25:42.443Z,2.81
2022-10-18T12:28:56.883Z,2.96
2022-10-18T12:31:42.501Z,2.99
2022-10-18T12:34:50.988Z,3.02
2022-10-18T12:38:04.896Z,2.98
2022-10-18T12:40:56.972Z,2.91
2022-10-18T12:43:44.068Z,2.79
2022-10-18T12:46:22.424Z,2.93
2022-10-18T12:49:16.749Z,2.80
2022-10-18T12:52:13.590Z,2.74
2022-10-18T12:55:22.266Z,2.78
2022-10-18T12:58:41.508Z,2.87
2022-10-18T13:01:20.708Z,2.97
2022-10-18T13:04:00.759Z,3.01
2022-10-18T13:07:18.599Z,3.01
2022-10-18T13:10:25.136Z,3.01
2022-10-18T13:17:01.593Z,3.01
2022-10-18T13:20:25.085Z,2.92
2022-10-18T13:23:37.878Z,2.96
2022-10-18T13:26:34.811Z,2.87
2022-10-18T13:32:32.892Z,2.89
2022-10-18T13:39:03.942Z,2.87
2022-10-18T13:42:36.277Z,2.91
2022-10-18T13:45:58.601Z,2.91
2022-10-18T13:49:05.104Z,2.91
2022-10-18T13:52:05.997Z,2.93
2022-10-18T13:55:13.183Z,2.83
2022-10-18T13:58:23.882Z,2.94
2022-10-18T14:01:20.711Z,2.99
2022-10-18T14:04:46.640Z,2.98
2022-10-18T14:07:30.109Z,2.68
2022-10-18T14:10:08.764Z,2.85
2022-10-18T14:12:51.744Z,2.12
2022-10-18T14:15:44.113Z,2.82
2022-10-18T14:18:35.986Z,2.83
2022-10-18T14:24:31.483Z,2.83
2022-10-18T14:27:28.217Z,2.86
2022-10-18T14:30:30.464Z,2.86
2022-10-18T14:33:39.747Z,2.83
2022-10-18T14:36:34.038Z,2.86
2022-10-18T14:39:13.826Z,2.89
2022-10-18T14:42:09.229Z,2.86
2022-10-18T14:44:56.653Z,2.68
2022-10-18T14:47:42.475Z,2.51
2022-10-18T14:50:33.472Z,2.61
2022-10-18T14:53:35.189Z,2.74
2022-10-18T14:59:13.538Z,2.87
2022-10-18T15:02:09.629Z,2.61
2022-10-18T15:04:59.564Z,2.93
2022-10-18T15:10:37.653Z,2.98
2022-10-18T15:13:30.631Z,3.00
2022-10-18T15:16:08.860Z,2.95
2022-10-18T15:18:48.152Z,2.95
2022-10-18T15:25:32.240Z,2.93
2022-10-18T15:28:12.719Z,2.95
2022-10-18T15:30:54.184Z,2.92
2022-10-18T15:33:42.717Z,2.90
2022-10-18T15:36:39.748Z,2.89
2022-10-18T15:39:40.130Z,2.91
2022-10-18T15:42:56.510Z,2.93
2022-10-18T15:48:53.750Z,2.93
2022-10-18T15:51:54.682Z,2.98
2022-10-18T15:54:40.889Z,2.81
2022-10-18T15:57:18.429Z,2.92
2022-10-18T16:00:08.910Z,2.83
2022-10-18T16:03:08.605Z,2.90
2022-10-18T16:05:46.661Z,2.89
2022-10-18T16:08:41.415Z,2.82
2022-10-18T16:11:35.385Z,2.58
2022-10-18T16:14:14.767Z,2.82
2022-10-18T16:16:53.574Z,2.74
2022-10-18T16:19:50.469Z,2.60
2022-10-18T16:22:31.113Z,2.48
2022-10-18T16:25:11.712Z,2.39
2022-10-18T16:27:50.086Z,2.19
2022-10-18T16:30:44.344Z,1.91
2022-10-18T16:33:31.049Z,2.04
2022-10-18T16:36:09.528Z,2.05
2022-10-18T16:38:48.123Z,2.03
2022-10-18T16:41:24.982Z,2.02
2022-10-18T16:44:04.059Z,1.96
2022-10-18T16:46:42.363Z,1.87
2022-10-18T16:49:28.273Z,1.59
2022-10-18T16:52:20.826Z,1.86
2022-10-18T16:55:01.055Z,1.91
2022-10-18T17:00:49.768Z,1.90
2022-10-18T17:03:30.174Z,1.87
2022-10-18T17:06:30.879Z,1.79
2022-10-18T17:09:18.314Z,1.69
2022-10-18T17:11:55.152Z,1.54
2022-10-18T17:14:48.765Z,1.61
2022-10-18T17:18:01.372Z,1.33
2022-10-18T17:20:51.801Z,1.42
2022-10-18T17:23:31.677Z,1.45
2022-10-18T17:26:30.869Z,1.49
2022-10-18T17:29:49.918Z,1.45
2022-10-18T17:32:29.679Z,1.50
2022-10-18T17:35:07.182Z,1.49
2022-10-18T17:37:45.421Z,1.54
2022-10-18T17:40:26.227Z,1.54
2022-10-18T17:43:24.618Z,1.60
2022-10-18T17:46:02.654Z,1.58
2022-10-18T17:48:39.264Z,1.55
2022-10-18T17:51:18.296Z,1.51
2022-10-18T17:54:05.889Z,1.41
2022-10-18T17:56:43.788Z,1.38
2022-10-18T17:59:21.588Z,1.34
2022-10-18T18:02:10.928Z,1.35
2022-10-18T18:04:53.871Z,1.38
2022-10-18T18:07:39.218Z,1.38
2022-10-18T18:10:25.446Z,1.40
2022-10-18T18:13:17.650Z,1.35
2022-10-18T18:16:09.915Z,1.36
2022-10-18T18:21:53.204Z,1.20
2022-10-18T18:24:34.119Z,0.81
2022-10-18T18:27:12.565Z,1.06
2022-10-18T18:29:51.271Z,0.96
2022-10-18T18:32:40.261Z,0.82
2022-10-18T18:35:22.564Z,0.71
2022-10-18T18:38:14.097Z,0.66
2022-10-18T18:43:59.948Z,0.54
2022-10-18T18:46:51.309Z,0.51
2022-10-18T18:49:33.511Z,0.47
2022-10-18T18:52:14.671Z,0.51
2022-10-18T18:54:57.701Z,0.57
2022-10-18T18:57:35.231Z,0.50
2022-10-18T19:00:14.392Z,0.57
2022-10-18T19:03:00.552Z,0.63
2022-10-18T19:05:49.262Z,0.67
2022-10-18T19:08:24.251Z,0.68
2022-10-18T19:11:17.227Z,0.74
2022-10-18T19:14:04.926Z,0.76
2022-10-18T19:16:46.892Z,0.81
2022-10-18T19:19:29.556Z,0.89
2022-10-18T19:22:24.090Z,0.97
2022-10-18T19:25:02.169Z,1.04
2022-10-18T19:28:13.154Z,1.08
2022-10-18T19:31:00.952Z,1.10
2022-10-18T19:33:48.403Z,1.17
2022-10-18T19:36:34.246Z,1.19
2022-10-18T19:39:20.717Z,1.23
2022-10-18T19:42:09.418Z,1.08
2022-10-18T19:45:02.127Z,1.40
2022-10-18T19:47:37.988Z,1.42
2022-10-18T19:50:16.564Z,1.40
2022-10-18T19:53:03.045Z,1.37
2022-10-18T19:56:07.100Z,1.31
2022-10-18T19:59:10.418Z,1.20
2022-10-18T20:01:48.275Z,1.25
2022-10-18T20:04:25.564Z,1.31
2022-10-18T20:07:09.924Z,1.22
2022-10-18T20:09:59.204Z,1.42
2022-10-18T20:12:47.347Z,1.29
2022-10-18T20:15:33.528Z,1.23
2022-10-18T20:18:32.969Z,1.19
2022-10-18T20:21:13.069Z,1.19
2022-10-18T20:23:50.388Z,1.22
2022-10-18T20:26:28.295Z,1.24
2022-10-18T20:32:28.641Z,1.38
2022-10-18T20:35:12.542Z,1.45
2022-10-18T20:38:05.205Z,1.51
2022-10-18T20:40:45.453Z,1.59
2022-10-18T20:43:30.749Z,1.70
2022-10-18T20:46:19.304Z,1.68
2022-10-18T20:48:56.358Z,1.82
2022-10-18T20:51:58.043Z,1.81
2022-10-18T20:54:44.770Z,1.85
2022-10-18T20:57:37.776Z,1.89
2022-10-18T21:00:36.228Z,1.98
2022-10-18T21:08:41.115Z,2.21
2022-10-18T21:11:24.377Z,2.22
2022-10-18T21:14:13.367Z,1.97
2022-10-18T21:16:56.312Z,2.18
2022-10-18T21:22:29.581Z,2.21
2022-10-18T21:25:07.660Z,2.31
2022-10-18T21:27:53.980Z,2.35
2022-10-18T21:30:47.861Z,2.41
2022-10-18T21:33:36.443Z,2.44
2022-10-18T21:36:42.260Z,2.52
2022-10-18T21:39:33.627Z,2.53
2022-10-18T21:42:10.946Z,2.68
2022-10-18T21:44:57.587Z,2.73
2022-10-18T21:47:36.807Z,2.79
2022-10-18T21:50:16.633Z,2.81
2022-10-18T21:55:53.072Z,2.54
2022-10-18T22:01:32.298Z,2.46
2022-10-18T22:04:17.542Z,2.55
2022-10-18T22:06:52.778Z,2.65
2022-10-18T22:09:38.378Z,2.67
2022-10-18T22:12:29.378Z,2.79
2022-10-18T22:15:11.324Z,2.91
2022-10-18T22:17:50.089Z,3.08
2022-10-18T22:20:30.367Z,3.25
2022-10-18T22:23:22.453Z,3.43
2022-10-18T22:26:08.681Z,3.76
2022-10-18T22:29:20.538Z,3.93
2022-10-18T22:32:12.191Z,4.04
2022-10-18T22:34:51.846Z,4.09
2022-10-18T22:41:07.044Z,4.18
2022-10-18T22:44:03.393Z,4.27
2022-10-18T22:46:48.373Z,4.21
2022-10-18T22:52:37.265Z,4.65
2022-10-18T22:55:36.738Z,4.78
2022-10-18T22:58:20.230Z,4.83
2022-10-18T23:01:09.032Z,4.82
2022-10-18T23:04:00.585Z,4.87
2022-10-18T23:06:37.777Z,4.58
2022-10-18T23:09:30.061Z,5.02
2022-10-18T23:12:11.476Z,5.04
2022-10-18T23:14:48.999Z,5.10
2022-10-18T23:17:42.879Z,5.07
2022-10-18T23:20:20.206Z,5.02
2022-10-18T23:22:59.711Z,5.17
2022-10-18T23:25:52.932Z,5.30
2022-10-18T23:28:32.793Z,5.26
2022-10-18T23:31:13.163Z,5.19
2022-10-18T23:34:03.450Z,5.18
2022-10-18T23:36:45.728Z,5.42
2022-10-18T23:39:34.722Z,5.46
2022-10-18T23:42:16.977Z,6.08
2022-10-18T23:45:02.802Z,6.42
2022-10-18T23:47:41.464Z,6.69
2022-10-18T23:50:27.271Z,6.63
2022-10-18T23:53:05.091Z,6.70
2022-10-18T23:55:43.508Z,6.66
2022-10-18T23:58:31.987Z,6.68
